createdAt,value
2018-02-11T00:00:55.386Z,95.88
2018-02-11T00:01:55.461Z,95.98
2018-02-11T00:02:55.640Z,95.69
2018-02-11T00:03:55.588Z,95.12
2018-02-11T00:04:55.649Z,95.69
2018-02-11T00:05:55.750Z,95.69
2018-02-11T00:06:55.915Z,95.79
2018-02-11T00:07:55.843Z,95.69
2018-02-11T00:08:55.909Z,95.69
2018-02-11T00:09:56.020Z,95.88
2018-02-11T00:10:56.051Z,95.60
2018-02-11T00:11:56.108Z,96.08
2018-02-11T00:12:56.184Z,95.69
2018-02-11T00:13:56.236Z,95.69
2018-02-11T00:14:56.304Z,95.12
2018-02-11T00:15:56.463Z,95.12
2018-02-11T00:16:56.427Z,95.31
2018-02-11T00:17:56.593Z,95.22
2018-02-11T00:18:56.559Z,95.50
2018-02-11T00:19:56.665Z,95.12
2018-02-11T00:20:56.686Z,95.12
2018-02-11T00:21:56.764Z,95.31
2018-02-11T00:22:56.822Z,95.88
2018-02-11T00:23:56.884Z,95.69
2018-02-11T00:24:56.950Z,95.60
2018-02-11T00:25:57.025Z,95.79
2018-02-11T00:26:57.092Z,95.69
2018-02-11T00:27:57.161Z,95.88
2018-02-11T00:28:57.216Z,95.69
2018-02-11T00:29:57.287Z,95.03
2018-02-11T00:30:57.348Z,95.69
2018-02-11T00:31:57.412Z,95.69
2018-02-11T00:32:57.477Z,95.88
2018-02-11T00:33:57.552Z,95.69
2018-02-11T00:34:57.607Z,95.79
2018-02-11T00:35:57.673Z,95.69
2018-02-11T00:36:57.733Z,95.98
2018-02-11T00:37:57.807Z,95.69
2018-02-11T00:38:57.865Z,95.60
2018-02-11T00:39:57.934Z,95.69
2018-02-11T00:40:57.994Z,95.31
2018-02-11T00:41:58.064Z,95.69
2018-02-11T00:42:58.123Z,95.98
2018-02-11T00:43:58.214Z,95.88
2018-02-11T00:44:58.259Z,95.98
2018-02-11T00:45:58.346Z,95.31
2018-02-11T00:46:58.453Z,95.17
2018-02-11T00:47:58.457Z,95.07
2018-02-11T00:48:58.519Z,95.07
2018-02-11T00:49:58.590Z,95.65
2018-02-11T00:50:58.650Z,95.93
2018-02-11T00:51:58.714Z,94.98
2018-02-11T00:52:58.813Z,95.84
2018-02-11T00:53:59.001Z,95.84
2018-02-11T00:54:58.910Z,95.26
2018-02-11T00:55:58.972Z,95.65
2018-02-11T00:56:59.041Z,95.69
2018-02-11T00:57:59.111Z,95.69
2018-02-11T00:58:59.166Z,95.93
2018-02-11T00:59:59.232Z,96.12
2018-02-11T01:00:59.291Z,95.60
2018-02-11T01:01:59.362Z,95.60
2018-02-11T01:02:59.420Z,95.69
2018-02-11T01:03:59.495Z,95.50
2018-02-11T01:04:59.549Z,95.60
2018-02-11T01:05:59.758Z,95.69
2018-02-11T01:06:59.770Z,95.79
2018-02-11T01:07:59.750Z,95.88
2018-02-11T01:08:59.818Z,96.07
2018-02-11T01:09:59.873Z,95.79
2018-02-11T01:10:59.940Z,95.60
2018-02-11T01:12:00.012Z,95.88
2018-02-11T01:13:00.074Z,96.07
2018-02-11T01:14:00.142Z,96.07
2018-02-11T01:15:00.204Z,95.88
2018-02-11T01:16:00.264Z,95.88
2018-02-11T01:17:00.327Z,95.98
2018-02-11T01:18:00.398Z,95.60
2018-02-11T01:19:00.456Z,95.60
2018-02-11T01:20:00.519Z,95.41
2018-02-11T01:21:00.592Z,95.69
2018-02-11T01:22:00.651Z,95.69
2018-02-11T01:23:00.719Z,95.79
2018-02-11T01:24:00.774Z,95.88
2018-02-11T01:25:00.851Z,95.60
2018-02-11T01:26:00.903Z,95.50
2018-02-11T01:27:00.974Z,95.79
2018-02-11T01:28:01.047Z,95.60
2018-02-11T01:29:01.112Z,95.41
2018-02-11T01:30:01.167Z,95.60
2018-02-11T01:31:01.234Z,95.50
2018-02-11T01:32:01.330Z,95.98
2018-02-11T01:33:01.362Z,95.88
2018-02-11T01:34:01.431Z,95.88
2018-02-11T01:35:01.481Z,95.60
2018-02-11T01:36:01.635Z,95.88
2018-02-11T01:37:01.610Z,95.88
2018-02-11T01:38:01.695Z,95.41
2018-02-11T01:39:01.752Z,95.98
2018-02-11T01:40:01.987Z,95.98
2018-02-11T01:41:01.870Z,95.79
2018-02-11T01:42:01.941Z,95.88
2018-02-11T01:43:02.073Z,95.79
2018-02-11T01:44:02.065Z,95.98
2018-02-11T01:45:02.137Z,95.69
2018-02-11T01:46:02.202Z,95.79
2018-02-11T01:47:02.306Z,95.69
2018-02-11T01:48:02.335Z,95.88
2018-02-11T01:49:02.397Z,95.98
2018-02-11T01:50:02.453Z,95.69
2018-02-11T01:51:02.524Z,95.88
2018-02-11T01:52:02.579Z,95.60
2018-02-11T01:53:02.647Z,96.07
2018-02-11T01:54:02.725Z,95.88
2018-02-11T01:55:02.775Z,96.07
2018-02-11T01:56:02.836Z,95.50
2018-02-11T01:57:02.913Z,95.41
2018-02-11T01:58:02.984Z,95.79
2018-02-11T01:59:03.046Z,95.60
2018-02-11T02:00:03.101Z,95.69
2018-02-11T02:01:03.167Z,96.07
2018-02-11T02:02:03.226Z,95.69
2018-02-11T02:03:03.285Z,95.69
2018-02-11T02:04:03.360Z,96.07
2018-02-11T02:05:03.428Z,95.41
2018-02-11T02:06:03.487Z,95.79
2018-02-11T02:07:03.547Z,96.36
2018-02-11T02:08:03.617Z,96.17
2018-02-11T02:09:03.675Z,96.26
2018-02-11T02:10:03.748Z,96.07
2018-02-11T02:11:03.804Z,95.60
2018-02-11T02:12:03.871Z,95.88
2018-02-11T02:13:03.927Z,95.88
2018-02-11T02:14:04.001Z,95.98
2018-02-11T02:15:04.061Z,96.07
2018-02-11T02:16:04.120Z,95.98
2018-02-11T02:17:04.187Z,95.98
2018-02-11T02:18:04.299Z,96.07
2018-02-11T02:19:04.314Z,95.88
2018-02-11T02:20:04.387Z,95.69
2018-02-11T02:21:04.458Z,95.79
2018-02-11T02:22:04.507Z,95.79
2018-02-11T02:23:04.572Z,95.79
2018-02-11T02:24:04.647Z,95.60
2018-02-11T02:25:04.714Z,96.02
2018-02-11T02:26:04.765Z,95.93
2018-02-11T02:27:04.832Z,96.07
2018-02-11T02:28:04.901Z,96.26
2018-02-11T02:29:04.965Z,96.69
2018-02-11T02:30:05.033Z,96.40
2018-02-11T02:31:05.111Z,96.55
2018-02-11T02:32:05.150Z,96.45
2018-02-11T02:33:05.235Z,96.64
2018-02-11T02:34:05.286Z,96.36
2018-02-11T02:35:05.349Z,96.26
2018-02-11T02:36:05.414Z,96.17
2018-02-11T02:37:05.469Z,96.17
2018-02-11T02:38:05.551Z,96.36
2018-02-11T02:39:05.602Z,96.26
2018-02-11T02:40:05.671Z,96.17
2018-02-11T02:41:05.736Z,95.98
2018-02-11T02:42:05.793Z,95.98
2018-02-11T02:43:05.868Z,95.88
2018-02-11T02:44:05.949Z,95.88
2018-02-11T02:45:05.983Z,95.98
2018-02-11T02:46:06.051Z,95.98
2018-02-11T02:47:06.107Z,95.98
2018-02-11T02:48:06.175Z,95.98
2018-02-11T02:49:06.247Z,96.36
2018-02-11T02:50:06.303Z,96.36
2018-02-11T02:51:06.385Z,96.17
2018-02-11T02:52:06.430Z,96.45
2018-02-11T02:53:06.492Z,96.64
2018-02-11T02:54:06.568Z,96.26
2018-02-11T02:55:06.623Z,96.07
2018-02-11T02:56:06.694Z,96.07
2018-02-11T02:57:06.758Z,96.07
2018-02-11T02:58:06.819Z,96.17
2018-02-11T02:59:06.888Z,96.26
2018-02-11T03:00:06.956Z,96.17
2018-02-11T03:01:07.012Z,96.36
2018-02-11T03:02:07.076Z,96.26
2018-02-11T03:03:07.137Z,96.36
2018-02-11T03:04:07.233Z,96.36
2018-02-11T03:05:07.263Z,96.36
2018-02-11T03:06:07.334Z,96.36
2018-02-11T03:07:07.396Z,96.73
2018-02-11T03:08:07.457Z,96.73
2018-02-11T03:09:07.531Z,96.73
2018-02-11T03:10:07.586Z,96.55
2018-02-11T03:11:07.651Z,96.45
2018-02-11T03:12:07.726Z,96.55
2018-02-11T03:13:07.782Z,96.83
2018-02-11T03:14:07.844Z,96.45
2018-02-11T03:15:07.904Z,96.83
2018-02-11T03:16:07.971Z,96.36
2018-02-11T03:17:08.042Z,96.45
2018-02-11T03:18:08.103Z,96.64
2018-02-11T03:19:08.166Z,96.73
2018-02-11T03:20:08.229Z,96.73
2018-02-11T03:21:08.297Z,96.26
2018-02-11T03:22:08.359Z,96.73
2018-02-11T03:23:08.425Z,96.45
2018-02-11T03:24:08.491Z,96.55
2018-02-11T03:25:08.564Z,96.55
2018-02-11T03:26:08.617Z,96.55
2018-02-11T03:27:08.683Z,96.45
2018-02-11T03:28:08.750Z,96.36
2018-02-11T03:29:08.812Z,96.36
2018-02-11T03:30:08.876Z,96.45
2018-02-11T03:31:08.949Z,96.36
2018-02-11T03:32:09.006Z,96.73
2018-02-11T03:33:09.066Z,96.64
2018-02-11T03:34:09.138Z,96.73
2018-02-11T03:35:09.203Z,96.73
2018-02-11T03:36:09.266Z,96.36
2018-02-11T03:37:09.325Z,96.55
2018-02-11T03:38:09.395Z,96.55
2018-02-11T03:39:09.454Z,96.55
2018-02-11T03:40:09.526Z,96.83
2018-02-11T03:41:09.585Z,96.83
2018-02-11T03:42:09.652Z,96.73
2018-02-11T03:43:09.713Z,97.11
2018-02-11T03:44:09.778Z,96.92
2018-02-11T03:45:09.840Z,96.83
2018-02-11T03:46:09.913Z,96.83
2018-02-11T03:47:10.038Z,96.64
2018-02-11T03:48:10.039Z,96.64
2018-02-11T03:49:10.102Z,96.36
2018-02-11T03:50:10.163Z,96.36
2018-02-11T03:51:10.232Z,96.55
2018-02-11T03:52:10.290Z,96.64
2018-02-11T03:53:10.359Z,96.26
2018-02-11T03:54:10.424Z,96.55
2018-02-11T03:55:10.487Z,96.45
2018-02-11T03:56:10.542Z,97.11
2018-02-11T03:57:10.611Z,96.73
2018-02-11T03:58:10.679Z,96.73
2018-02-11T03:59:10.748Z,96.83
2018-02-11T04:00:10.815Z,96.92
2018-02-11T04:01:10.871Z,96.92
2018-02-11T04:02:10.934Z,96.73
2018-02-11T04:03:10.997Z,96.45
2018-02-11T04:04:11.064Z,96.45
2018-02-11T04:05:11.130Z,96.26
2018-02-11T04:06:11.191Z,96.64
2018-02-11T04:07:11.255Z,96.36
2018-02-11T04:08:11.318Z,96.45
2018-02-11T04:09:11.382Z,96.73
2018-02-11T04:10:11.450Z,96.45
2018-02-11T04:11:11.525Z,96.45
2018-02-11T04:12:11.579Z,96.36
2018-02-11T04:13:11.636Z,96.45
2018-02-11T04:14:11.708Z,96.55
2018-02-11T04:15:11.768Z,96.36
2018-02-11T04:16:11.835Z,96.55
2018-02-11T04:17:11.903Z,96.45
2018-02-11T04:18:11.964Z,96.55
2018-02-11T04:19:12.028Z,96.92
2018-02-11T04:20:12.087Z,96.73
2018-02-11T04:21:12.156Z,96.73
2018-02-11T04:22:12.220Z,96.36
2018-02-11T04:23:12.288Z,96.45
2018-02-11T04:24:12.357Z,96.83
2018-02-11T04:25:12.412Z,96.73
2018-02-11T04:26:12.479Z,96.36
2018-02-11T04:27:12.540Z,96.83
2018-02-11T04:28:12.611Z,96.83
2018-02-11T04:29:12.673Z,96.92
2018-02-11T04:30:12.736Z,96.45
2018-02-11T04:31:12.795Z,96.83
2018-02-11T04:32:12.864Z,96.55
2018-02-11T04:33:12.930Z,96.55
2018-02-11T04:34:12.995Z,96.83
2018-02-11T04:35:13.054Z,96.83
2018-02-11T04:36:13.120Z,96.92
2018-02-11T04:37:13.190Z,96.92
2018-02-11T04:38:13.246Z,96.92
2018-02-11T04:39:13.315Z,96.64
2018-02-11T04:40:13.376Z,97.40
2018-02-11T04:41:13.442Z,97.30
2018-02-11T04:42:13.505Z,97.21
2018-02-11T04:43:13.568Z,97.21
2018-02-11T04:44:13.633Z,97.30
2018-02-11T04:45:13.700Z,96.92
2018-02-11T04:46:13.761Z,96.73
2018-02-11T04:47:13.823Z,96.83
2018-02-11T04:48:13.887Z,96.55
2018-02-11T04:49:13.969Z,96.92
2018-02-11T04:50:14.017Z,96.55
2018-02-11T04:51:14.077Z,96.64
2018-02-11T04:52:14.149Z,96.45
2018-02-11T04:53:14.217Z,96.64
2018-02-11T04:54:14.274Z,96.36
2018-02-11T04:55:14.335Z,96.92
2018-02-11T04:56:14.404Z,96.83
2018-02-11T04:57:14.469Z,97.11
2018-02-11T04:58:14.533Z,97.30
2018-02-11T04:59:14.599Z,97.30
2018-02-11T05:00:14.661Z,96.92
2018-02-11T05:01:14.724Z,96.83
2018-02-11T05:02:14.788Z,96.73
2018-02-11T05:03:14.854Z,97.11
2018-02-11T05:04:14.917Z,97.30
2018-02-11T05:05:14.979Z,97.40
2018-02-11T05:06:15.047Z,97.49
2018-02-11T05:07:15.110Z,97.02
2018-02-11T05:08:15.171Z,97.21
2018-02-11T05:09:15.236Z,96.92
2018-02-11T05:10:15.309Z,97.11
2018-02-11T05:11:15.368Z,97.02
2018-02-11T05:12:15.447Z,96.55
2018-02-11T05:13:15.493Z,96.83
2018-02-11T05:14:15.561Z,97.49
2018-02-11T05:15:15.626Z,97.11
2018-02-11T05:16:15.693Z,96.83
2018-02-11T05:17:15.769Z,97.11
2018-02-11T05:18:15.823Z,97.02
2018-02-11T05:19:15.884Z,97.30
2018-02-11T05:20:15.945Z,96.92
2018-02-11T05:21:16.056Z,96.36
2018-02-11T05:22:16.077Z,96.92
2018-02-11T05:23:16.138Z,96.83
2018-02-11T05:24:16.209Z,96.83
2018-02-11T05:25:16.272Z,96.64
2018-02-11T05:26:16.332Z,96.64
2018-02-11T05:27:16.395Z,96.55
2018-02-11T05:28:16.467Z,97.02
2018-02-11T05:29:16.522Z,97.40
2018-02-11T05:30:16.606Z,96.92
2018-02-11T05:31:16.655Z,97.02
2018-02-11T05:32:16.713Z,96.92
2018-02-11T05:33:16.781Z,96.73
2018-02-11T05:34:16.838Z,96.92
2018-02-11T05:35:16.906Z,96.64
2018-02-11T05:36:16.975Z,96.73
2018-02-11T05:37:17.038Z,96.92
2018-02-11T05:38:17.107Z,96.92
2018-02-11T05:39:17.168Z,96.83
2018-02-11T05:40:17.227Z,96.83
2018-02-11T05:41:17.294Z,96.92
2018-02-11T05:42:17.356Z,96.83
2018-02-11T05:43:17.426Z,96.73
2018-02-11T05:44:17.487Z,96.55
2018-02-11T05:45:17.549Z,96.45
2018-02-11T05:46:17.614Z,96.45
2018-02-11T05:47:17.674Z,96.36
2018-02-11T05:48:17.745Z,96.73
2018-02-11T05:49:17.806Z,96.45
2018-02-11T05:50:17.883Z,96.45
2018-02-11T05:51:17.942Z,96.73
2018-02-11T05:52:17.998Z,96.92
2018-02-11T05:53:18.062Z,96.73
2018-02-11T05:54:18.126Z,96.83
2018-02-11T05:55:18.195Z,96.83
2018-02-11T05:56:18.257Z,96.83
2018-02-11T05:57:18.320Z,97.02
2018-02-11T05:58:18.391Z,96.45
2018-02-11T05:59:18.445Z,96.17
2018-02-11T06:00:18.533Z,95.98
2018-02-11T06:01:18.619Z,96.36
2018-02-11T06:02:18.643Z,96.64
2018-02-11T06:03:18.703Z,96.36
2018-02-11T06:04:18.769Z,97.30
2018-02-11T06:05:18.832Z,96.92
2018-02-11T06:06:18.897Z,97.78
2018-02-11T06:07:18.961Z,97.68
2018-02-11T06:08:19.032Z,97.30
2018-02-11T06:09:19.095Z,97.21
2018-02-11T06:10:19.156Z,96.73
2018-02-11T06:11:19.222Z,97.40
2018-02-11T06:12:19.287Z,97.02
2018-02-11T06:13:19.348Z,96.73
2018-02-11T06:14:19.405Z,96.73
2018-02-11T06:15:19.474Z,97.11
2018-02-11T06:16:19.546Z,96.92
2018-02-11T06:17:19.602Z,96.83
2018-02-11T06:18:19.666Z,96.83
2018-02-11T06:19:19.732Z,97.11
2018-02-11T06:20:19.796Z,96.97
2018-02-11T06:21:19.859Z,96.97
2018-02-11T06:22:19.923Z,96.83
2018-02-11T06:23:19.988Z,96.97
2018-02-11T06:24:20.057Z,96.88
2018-02-11T06:25:20.114Z,96.73
2018-02-11T06:26:20.177Z,96.78
2018-02-11T06:27:20.256Z,96.88
2018-02-11T06:28:20.306Z,96.92
2018-02-11T06:29:20.417Z,96.41
2018-02-11T06:30:20.433Z,96.36
2018-02-11T06:31:20.501Z,96.73
2018-02-11T06:32:20.566Z,96.97
2018-02-11T06:33:20.631Z,96.97
2018-02-11T06:34:20.696Z,96.97
2018-02-11T06:35:20.755Z,97.35
2018-02-11T06:36:20.827Z,96.55
2018-02-11T06:37:20.897Z,97.16
2018-02-11T06:38:20.960Z,96.92
2018-02-11T06:39:21.016Z,96.73
2018-02-11T06:40:21.078Z,96.83
2018-02-11T06:41:21.149Z,96.73
2018-02-11T06:42:21.213Z,96.92
2018-02-11T06:43:21.277Z,97.02
2018-02-11T06:44:21.337Z,96.83
2018-02-11T06:45:21.404Z,96.83
2018-02-11T06:46:21.465Z,97.21
2018-02-11T06:47:21.531Z,97.30
2018-02-11T06:48:21.593Z,97.21
2018-02-11T06:49:21.659Z,97.30
2018-02-11T06:50:21.729Z,96.55
2018-02-11T06:51:21.792Z,96.55
2018-02-11T06:52:21.856Z,96.73
2018-02-11T06:53:21.916Z,96.45
2018-02-11T06:54:21.985Z,96.64
2018-02-11T06:55:22.046Z,96.92
2018-02-11T06:56:22.109Z,96.73
2018-02-11T06:57:22.194Z,97.11
2018-02-11T06:58:22.239Z,97.21
2018-02-11T06:59:22.307Z,97.11
2018-02-11T07:00:22.368Z,96.78
2018-02-11T07:01:22.435Z,96.92
2018-02-11T07:02:22.497Z,96.97
2018-02-11T07:03:22.556Z,97.45
2018-02-11T07:04:22.626Z,96.59
2018-02-11T07:05:22.691Z,96.78
2018-02-11T07:06:22.754Z,96.78
2018-02-11T07:07:22.820Z,96.97
2018-02-11T07:08:22.915Z,96.88
2018-02-11T07:09:22.949Z,97.26
2018-02-11T07:10:23.009Z,96.97
2018-02-11T07:11:23.076Z,96.88
2018-02-11T07:12:23.140Z,96.97
2018-02-11T07:13:23.203Z,96.88
2018-02-11T07:14:23.266Z,96.78
2018-02-11T07:15:23.331Z,96.78
2018-02-11T07:16:23.394Z,96.97
2018-02-11T07:17:23.469Z,97.16
2018-02-11T07:18:23.533Z,96.88
2018-02-11T07:19:23.589Z,96.97
2018-02-11T07:20:23.656Z,96.78
2018-02-11T07:21:23.722Z,96.88
2018-02-11T07:22:23.785Z,96.97
2018-02-11T07:23:23.846Z,96.78
2018-02-11T07:24:23.919Z,96.78
2018-02-11T07:25:23.981Z,96.97
2018-02-11T07:26:24.041Z,96.97
2018-02-11T07:27:24.117Z,96.97
2018-02-11T07:28:24.177Z,96.88
2018-02-11T07:29:24.228Z,96.88
2018-02-11T07:30:24.301Z,96.78
2018-02-11T07:31:24.365Z,96.78
2018-02-11T07:32:24.440Z,96.59
2018-02-11T07:33:24.492Z,96.97
2018-02-11T07:34:24.559Z,96.97
2018-02-11T07:35:24.623Z,96.69
2018-02-11T07:36:24.692Z,96.88
2018-02-11T07:37:24.761Z,96.78
2018-02-11T07:38:24.812Z,96.59
2018-02-11T07:39:24.882Z,96.73
2018-02-11T07:40:24.949Z,97.02
2018-02-11T07:41:25.013Z,96.55
2018-02-11T07:42:25.082Z,96.64
2018-02-11T07:43:25.136Z,96.55
2018-02-11T07:44:25.207Z,96.45
2018-02-11T07:45:25.274Z,96.64
2018-02-11T07:46:25.338Z,96.45
2018-02-11T07:47:25.406Z,96.55
2018-02-11T07:48:25.469Z,96.36
2018-02-11T07:49:25.529Z,96.45
2018-02-11T07:50:25.594Z,96.83
2018-02-11T07:51:25.662Z,96.83
2018-02-11T07:52:25.722Z,96.45
2018-02-11T07:53:25.799Z,96.83
2018-02-11T07:54:25.861Z,96.64
2018-02-11T07:55:25.920Z,96.83
2018-02-11T07:56:25.986Z,96.55
2018-02-11T07:57:26.054Z,96.55
2018-02-11T07:58:26.108Z,96.73
2018-02-11T07:59:26.183Z,96.73
2018-02-11T08:00:26.245Z,96.83
2018-02-11T08:01:26.308Z,96.83
2018-02-11T08:02:26.385Z,96.73
2018-02-11T08:03:26.435Z,96.92
2018-02-11T08:04:26.507Z,96.92
2018-02-11T08:05:26.565Z,96.73
2018-02-11T08:06:26.629Z,96.36
2018-02-11T08:07:26.696Z,96.26
2018-02-11T08:08:26.933Z,96.17
2018-02-11T08:09:26.825Z,96.83
2018-02-11T08:10:26.900Z,96.45
2018-02-11T08:11:26.957Z,96.92
2018-02-11T08:12:27.020Z,96.73
2018-02-11T08:13:27.086Z,96.45
2018-02-11T08:14:27.151Z,96.17
2018-02-11T08:15:27.216Z,96.36
2018-02-11T08:16:27.285Z,96.26
2018-02-11T08:17:27.345Z,96.45
2018-02-11T08:18:27.435Z,95.98
2018-02-11T08:19:27.478Z,95.98
2018-02-11T08:20:27.541Z,95.98
2018-02-11T08:21:27.612Z,95.98
2018-02-11T08:22:27.666Z,96.17
2018-02-11T08:23:27.743Z,96.08
2018-02-11T08:24:27.801Z,96.08
2018-02-11T08:25:27.873Z,96.64
2018-02-11T08:26:27.959Z,96.36
2018-02-11T08:27:28.076Z,95.98
2018-02-11T08:28:28.064Z,96.17
2018-02-11T08:29:28.128Z,96.17
2018-02-11T08:30:28.213Z,96.17
2018-02-11T08:31:28.265Z,96.26
2018-02-11T08:32:28.329Z,96.26
2018-02-11T08:33:28.387Z,96.45
2018-02-11T08:34:28.453Z,96.26
2018-02-11T08:35:28.516Z,96.26
2018-02-11T08:36:28.585Z,96.26
2018-02-11T08:37:28.646Z,96.55
2018-02-11T08:38:28.715Z,95.98
2018-02-11T08:39:28.773Z,96.17
2018-02-11T08:40:28.855Z,96.26
2018-02-11T08:41:28.906Z,96.08
2018-02-11T08:42:28.972Z,95.98
2018-02-11T08:43:29.040Z,96.45
2018-02-11T08:44:29.209Z,96.17
2018-02-11T08:45:29.167Z,96.22
2018-02-11T08:46:29.233Z,96.36
2018-02-11T08:47:29.300Z,96.41
2018-02-11T08:48:29.361Z,96.12
2018-02-11T08:49:29.431Z,96.22
2018-02-11T08:50:29.489Z,96.12
2018-02-11T08:51:29.555Z,95.93
2018-02-11T08:52:29.622Z,96.12
2018-02-11T08:53:29.686Z,96.12
2018-02-11T08:54:29.755Z,95.93
2018-02-11T08:55:29.820Z,96.12
2018-02-11T08:56:29.887Z,96.69
2018-02-11T08:57:29.962Z,96.03
2018-02-11T08:58:30.014Z,96.12
2018-02-11T08:59:30.078Z,96.12
2018-02-11T09:00:30.149Z,96.41
2018-02-11T09:01:30.219Z,96.22
2018-02-11T09:02:30.275Z,96.50
2018-02-11T09:03:30.342Z,96.50
2018-02-11T09:04:30.407Z,96.12
2018-02-11T09:05:30.471Z,96.22
2018-02-11T09:06:30.538Z,96.12
2018-02-11T09:07:30.606Z,96.22
2018-02-11T09:08:30.664Z,96.03
2018-02-11T09:09:30.731Z,96.03
2018-02-11T09:10:30.800Z,95.93
2018-02-11T09:11:30.865Z,96.22
2018-02-11T09:12:30.925Z,96.22
2018-02-11T09:13:30.996Z,96.03
2018-02-11T09:14:31.065Z,96.12
2018-02-11T09:15:31.141Z,96.03
2018-02-11T09:16:31.191Z,95.51
2018-02-11T09:17:31.252Z,95.60
2018-02-11T09:18:31.321Z,95.89
2018-02-11T09:19:31.389Z,95.51
2018-02-11T09:20:31.452Z,96.17
2018-02-11T09:21:31.523Z,95.51
2018-02-11T09:22:31.581Z,95.31
2018-02-11T09:23:31.650Z,95.12
2018-02-11T09:24:31.720Z,95.03
2018-02-11T09:25:31.780Z,95.22
2018-02-11T09:26:31.849Z,95.22
2018-02-11T09:27:31.912Z,95.31
2018-02-11T09:28:31.977Z,95.60
2018-02-11T09:29:32.048Z,95.31
2018-02-11T09:30:32.113Z,95.31
2018-02-11T09:31:32.168Z,95.12
2018-02-11T09:32:32.247Z,95.60
2018-02-11T09:33:32.307Z,95.31
2018-02-11T09:34:32.372Z,95.12
2018-02-11T09:35:32.443Z,94.89
2018-02-11T09:36:32.529Z,94.51
2018-02-11T09:37:32.566Z,94.79
2018-02-11T09:38:32.639Z,94.79
2018-02-11T09:39:32.702Z,94.60
2018-02-11T09:40:32.760Z,94.98
2018-02-11T09:41:32.836Z,94.89
2018-02-11T09:42:32.901Z,94.79
2018-02-11T09:43:32.970Z,95.36
2018-02-11T09:44:33.036Z,95.65
2018-02-11T09:45:33.098Z,95.27
2018-02-11T09:46:33.167Z,95.17
2018-02-11T09:47:33.233Z,95.36
2018-02-11T09:48:33.294Z,95.46
2018-02-11T09:49:33.364Z,95.36
2018-02-11T09:50:33.433Z,95.65
2018-02-11T09:51:33.494Z,95.17
2018-02-11T09:52:33.560Z,95.27
2018-02-11T09:53:33.637Z,95.27
2018-02-11T09:54:33.758Z,95.08
2018-02-11T09:55:33.763Z,95.65
2018-02-11T09:56:33.818Z,95.36
2018-02-11T09:57:33.904Z,94.98
2018-02-11T09:58:33.956Z,94.89
2018-02-11T09:59:34.114Z,94.70
2018-02-11T10:00:34.092Z,94.42
2018-02-11T10:01:34.165Z,94.65
2018-02-11T10:02:34.225Z,94.60
2018-02-11T10:03:34.295Z,93.79
2018-02-11T10:04:34.349Z,93.99
2018-02-11T10:05:34.425Z,94.37
2018-02-11T10:06:34.577Z,94.18
2018-02-11T10:07:34.560Z,94.37
2018-02-11T10:08:34.792Z,94.46
2018-02-11T10:09:38.689Z,94.08
2018-02-11T10:10:35.799Z,94.08
2018-02-11T10:11:34.910Z,94.08
2018-02-11T10:12:34.877Z,94.13
2018-02-11T10:13:34.973Z,93.55
2018-02-11T10:14:35.021Z,94.08
2018-02-11T10:15:35.087Z,93.99
2018-02-11T10:16:35.153Z,94.46
2018-02-11T10:17:35.219Z,94.65
2018-02-11T10:18:35.325Z,94.74
2018-02-11T10:19:35.349Z,94.74
2018-02-11T10:20:35.456Z,94.93
2018-02-11T10:21:35.489Z,94.37
2018-02-11T10:22:35.609Z,94.84
2018-02-11T10:23:35.620Z,94.84
2018-02-11T10:24:35.693Z,94.84
2018-02-11T10:25:35.750Z,94.84
2018-02-11T10:26:35.816Z,94.74
2018-02-11T10:27:35.904Z,94.84
2018-02-11T10:28:35.957Z,94.70
2018-02-11T10:29:36.045Z,94.89
2018-02-11T10:30:36.084Z,94.79
2018-02-11T10:31:36.155Z,95.03
2018-02-11T10:32:36.219Z,94.03
2018-02-11T10:33:36.290Z,94.51
2018-02-11T10:34:36.377Z,93.84
2018-02-11T10:35:36.428Z,93.75
2018-02-11T10:36:36.485Z,93.65
2018-02-11T10:37:36.561Z,93.37
2018-02-11T10:38:36.615Z,94.42
2018-02-11T10:39:36.691Z,93.94
2018-02-11T10:40:36.753Z,94.89
2018-02-11T10:41:36.822Z,94.98
2018-02-11T10:42:36.895Z,94.93
2018-02-11T10:43:36.955Z,95.32
2018-02-11T10:44:37.020Z,95.22
2018-02-11T10:45:37.099Z,95.51
2018-02-11T10:46:37.154Z,95.89
2018-02-11T10:47:37.230Z,95.89
2018-02-11T10:48:37.285Z,95.32
2018-02-11T10:49:37.360Z,95.22
2018-02-11T10:50:37.531Z,95.22
2018-02-11T10:51:37.490Z,95.51
2018-02-11T10:52:37.556Z,94.98
2018-02-11T10:53:37.625Z,94.79
2018-02-11T10:54:37.693Z,94.89
2018-02-11T10:55:37.760Z,94.98
2018-02-11T10:56:37.832Z,94.89
2018-02-11T10:57:37.890Z,95.12
2018-02-11T10:58:37.953Z,95.22
2018-02-11T10:59:38.040Z,95.51
2018-02-11T11:00:38.090Z,95.32
2018-02-11T11:01:38.158Z,95.98
2018-02-11T11:02:38.224Z,95.12
2018-02-11T11:03:38.309Z,96.17
2018-02-11T11:04:38.356Z,95.98
2018-02-11T11:05:38.419Z,96.17
2018-02-11T11:06:38.482Z,95.22
2018-02-11T11:07:38.555Z,96.17
2018-02-11T11:08:38.620Z,96.17
2018-02-11T11:09:38.855Z,96.17
2018-02-11T11:10:38.755Z,95.70
2018-02-11T11:11:38.830Z,95.41
2018-02-11T11:12:38.891Z,95.22
2018-02-11T11:13:38.973Z,96.17
2018-02-11T11:14:39.023Z,95.32
2018-02-11T11:15:39.088Z,95.22
2018-02-11T11:16:39.209Z,95.60
2018-02-11T11:17:39.290Z,95.70
2018-02-11T11:18:39.298Z,95.41
2018-02-11T11:19:39.358Z,95.22
2018-02-11T11:20:39.429Z,95.22
2018-02-11T11:21:39.494Z,95.12
2018-02-11T11:22:39.558Z,95.41
2018-02-11T11:23:39.725Z,95.12
2018-02-11T11:24:39.699Z,95.41
2018-02-11T11:25:39.765Z,95.22
2018-02-11T11:26:39.821Z,94.89
2018-02-11T11:27:39.896Z,94.98
2018-02-11T11:28:39.955Z,94.70
2018-02-11T11:29:40.032Z,94.03
2018-02-11T11:30:40.102Z,93.84
2018-02-11T11:31:40.162Z,93.51
2018-02-11T11:32:40.225Z,93.70
2018-02-11T11:33:40.303Z,93.41
2018-02-11T11:34:40.359Z,93.51
2018-02-11T11:35:40.421Z,93.60
2018-02-11T11:36:40.493Z,93.41
2018-02-11T11:37:40.563Z,93.60
2018-02-11T11:38:40.659Z,94.27
2018-02-11T11:39:40.696Z,93.98
2018-02-11T11:40:40.761Z,94.08
2018-02-11T11:41:40.831Z,94.56
2018-02-11T11:42:40.913Z,94.65
2018-02-11T11:43:40.963Z,94.46
2018-02-11T11:44:41.029Z,94.08
2018-02-11T11:45:41.091Z,93.98
2018-02-11T11:46:41.168Z,94.08
2018-02-11T11:47:41.234Z,94.13
2018-02-11T11:48:41.302Z,94.51
2018-02-11T11:49:41.372Z,94.79
2018-02-11T11:50:41.433Z,95.17
2018-02-11T11:51:41.492Z,95.17
2018-02-11T11:52:41.566Z,94.70
2018-02-11T11:53:41.635Z,94.60
2018-02-11T11:54:41.704Z,94.79
2018-02-11T11:55:41.846Z,94.98
2018-02-11T11:56:41.962Z,94.79
2018-02-11T11:57:41.903Z,94.74
2018-02-11T11:58:41.990Z,94.79
2018-02-11T11:59:42.058Z,94.60
2018-02-11T12:00:42.103Z,94.13
2018-02-11T12:01:42.169Z,93.99
2018-02-11T12:02:42.239Z,93.99
2018-02-11T12:03:42.309Z,93.89
2018-02-11T12:04:42.370Z,93.79
2018-02-11T12:05:42.433Z,93.89
2018-02-11T12:06:42.515Z,94.74
2018-02-11T12:07:42.570Z,94.60
2018-02-11T12:08:42.642Z,94.70
2018-02-11T12:09:42.701Z,93.89
2018-02-11T12:10:42.876Z,94.13
2018-02-11T12:11:42.847Z,94.13
2018-02-11T12:12:42.925Z,94.03
2018-02-11T12:13:42.982Z,93.84
2018-02-11T12:14:43.177Z,93.75
2018-02-11T12:15:43.118Z,94.13
2018-02-11T12:16:43.183Z,93.55
2018-02-11T12:17:43.260Z,93.70
2018-02-11T12:18:43.317Z,92.65
2018-02-11T12:19:43.377Z,93.23
2018-02-11T12:20:43.446Z,93.23
2018-02-11T12:21:43.509Z,92.46
2018-02-11T12:22:43.579Z,92.84
2018-02-11T12:23:43.648Z,92.84
2018-02-11T12:24:43.723Z,92.51
2018-02-11T12:25:43.782Z,92.51
2018-02-11T12:26:43.847Z,91.94
2018-02-11T12:27:43.922Z,91.41
2018-02-11T12:28:43.999Z,90.50
2018-02-11T12:29:44.054Z,89.03
2018-02-11T12:30:44.122Z,87.69
2018-02-11T12:31:44.195Z,87.98
2018-02-11T12:32:44.254Z,88.64
2018-02-11T12:33:44.325Z,87.74
2018-02-11T12:34:44.395Z,87.64
2018-02-11T12:35:44.452Z,88.36
2018-02-11T12:36:44.527Z,89.22
2018-02-11T12:37:44.590Z,89.94
2018-02-11T12:38:44.663Z,90.98
2018-02-11T12:39:44.734Z,91.84
2018-02-11T12:40:44.834Z,92.36
2018-02-11T12:41:44.874Z,92.08
2018-02-11T12:42:44.937Z,92.46
2018-02-11T12:43:45.005Z,92.89
2018-02-11T12:44:45.083Z,93.18
2018-02-11T12:45:45.163Z,93.27
2018-02-11T12:46:45.209Z,93.65
2018-02-11T12:47:45.272Z,93.74
2018-02-11T12:48:45.400Z,94.03
2018-02-11T12:49:45.467Z,93.46
2018-02-11T12:50:45.490Z,93.74
2018-02-11T12:51:45.591Z,93.65
2018-02-11T12:52:45.620Z,94.03
2018-02-11T12:53:45.692Z,94.13